sensor_id;sensor_type;location;lat;lon;timestamp;P1;durP1;ratioP1;P2;durP2;ratioP2
62848;SDS011;48941;49.516;8.286;2023-07-22T00:00:19;3.75;;;2.70;;
62848;SDS011;48941;49.516;8.286;2023-07-22T00:02:49;3.33;;;2.85;;
62848;SDS011;48941;49.516;8.286;2023-07-22T00:05:17;6.10;;;3.28;;
62848;SDS011;48941;49.516;8.286;2023-07-22T00:07:49;5.90;;;3.30;;
62848;SDS011;48941;49.516;8.286;2023-07-22T00:10:17;4.60;;;3.08;;
62848;SDS011;48941;49.516;8.286;2023-07-22T00:12:46;3.75;;;3.22;;
62848;SDS011;48941;49.516;8.286;2023-07-22T00:15:13;4.10;;;2.80;;
62848;SDS011;48941;49.516;8.286;2023-07-22T00:17:43;6.15;;;3.10;;
62848;SDS011;48941;49.516;8.286;2023-07-22T00:20:11;3.15;;;2.85;;
62848;SDS011;48941;49.516;8.286;2023-07-22T00:22:40;3.30;;;2.97;;
62848;SDS011;48941;49.516;8.286;2023-07-22T00:25:09;3.78;;;2.70;;
62848;SDS011;48941;49.516;8.286;2023-07-22T00:27:37;3.75;;;2.90;;
62848;SDS011;48941;49.516;8.286;2023-07-22T00:30:06;6.07;;;3.28;;
62848;SDS011;48941;49.516;8.286;2023-07-22T00:32:35;3.58;;;2.95;;
62848;SDS011;48941;49.516;8.286;2023-07-22T00:35:05;4.50;;;2.83;;
62848;SDS011;48941;49.516;8.286;2023-07-22T00:37:33;11.02;;;3.58;;
62848;SDS011;48941;49.516;8.286;2023-07-22T00:40:01;6.53;;;3.20;;
62848;SDS011;48941;49.516;8.286;2023-07-22T00:42:30;3.75;;;3.40;;
62848;SDS011;48941;49.516;8.286;2023-07-22T00:44:57;5.85;;;3.00;;
62848;SDS011;48941;49.516;8.286;2023-07-22T00:47:25;3.28;;;2.97;;
62848;SDS011;48941;49.516;8.286;2023-07-22T00:49:53;3.30;;;2.80;;
62848;SDS011;48941;49.516;8.286;2023-07-22T00:52:24;4.65;;;2.97;;
62848;SDS011;48941;49.516;8.286;2023-07-22T00:54:51;5.10;;;2.70;;
62848;SDS011;48941;49.516;8.286;2023-07-22T00:57:19;3.13;;;2.83;;
62848;SDS011;48941;49.516;8.286;2023-07-22T00:59:48;3.22;;;2.92;;
62848;SDS011;48941;49.516;8.286;2023-07-22T01:02:16;4.82;;;2.97;;
62848;SDS011;48941;49.516;8.286;2023-07-22T01:04:45;6.03;;;2.90;;
62848;SDS011;48941;49.516;8.286;2023-07-22T01:07:13;4.00;;;3.15;;
62848;SDS011;48941;49.516;8.286;2023-07-22T01:09:44;4.25;;;3.10;;
62848;SDS011;48941;49.516;8.286;2023-07-22T01:12:12;7.60;;;2.90;;
62848;SDS011;48941;49.516;8.286;2023-07-22T01:14:41;3.70;;;2.85;;
62848;SDS011;48941;49.516;8.286;2023-07-22T01:17:09;7.88;;;3.38;;
62848;SDS011;48941;49.516;8.286;2023-07-22T01:19:39;4.88;;;3.10;;
62848;SDS011;48941;49.516;8.286;2023-07-22T01:22:07;4.20;;;3.20;;
62848;SDS011;48941;49.516;8.286;2023-07-22T01:24:36;4.38;;;3.00;;
62848;SDS011;48941;49.516;8.286;2023-07-22T01:27:05;4.15;;;3.10;;
62848;SDS011;48941;49.516;8.286;2023-07-22T01:29:36;5.05;;;3.00;;
62848;SDS011;48941;49.516;8.286;2023-07-22T01:32:04;6.00;;;3.10;;
62848;SDS011;48941;49.516;8.286;2023-07-22T01:34:32;5.03;;;3.00;;
62848;SDS011;48941;49.516;8.286;2023-07-22T01:37:00;3.60;;;2.90;;
62848;SDS011;48941;49.516;8.286;2023-07-22T01:39:28;7.60;;;3.38;;
62848;SDS011;48941;49.516;8.286;2023-07-22T01:41:57;5.53;;;2.92;;
62848;SDS011;48941;49.516;8.286;2023-07-22T01:44:25;3.63;;;3.00;;
62848;SDS011;48941;49.516;8.286;2023-07-22T01:46:52;9.40;;;3.15;;
62848;SDS011;48941;49.516;8.286;2023-07-22T01:49:20;5.43;;;3.25;;
62848;SDS011;48941;49.516;8.286;2023-07-22T01:51:50;5.20;;;3.40;;
62848;SDS011;48941;49.516;8.286;2023-07-22T01:54:19;4.95;;;3.40;;
62848;SDS011;48941;49.516;8.286;2023-07-22T01:56:46;4.95;;;3.03;;
62848;SDS011;48941;49.516;8.286;2023-07-22T01:59:16;3.30;;;3.00;;
62848;SDS011;48941;49.516;8.286;2023-07-22T02:01:42;3.92;;;2.95;;
62848;SDS011;48941;49.516;8.286;2023-07-22T02:04:10;5.95;;;3.40;;
62848;SDS011;48941;49.516;8.286;2023-07-22T02:06:38;6.20;;;3.63;;
62848;SDS011;48941;49.516;8.286;2023-07-22T02:09:06;7.03;;;3.13;;
62848;SDS011;48941;49.516;8.286;2023-07-22T02:11:35;4.65;;;3.38;;
62848;SDS011;48941;49.516;8.286;2023-07-22T02:14:03;4.55;;;3.40;;
62848;SDS011;48941;49.516;8.286;2023-07-22T02:16:35;5.78;;;3.40;;
62848;SDS011;48941;49.516;8.286;2023-07-22T02:19:03;4.32;;;3.70;;
62848;SDS011;48941;49.516;8.286;2023-07-22T02:21:31;4.82;;;3.30;;
62848;SDS011;48941;49.516;8.286;2023-07-22T02:23:59;5.80;;;3.30;;
62848;SDS011;48941;49.516;8.286;2023-07-22T02:26:26;4.20;;;3.40;;
62848;SDS011;48941;49.516;8.286;2023-07-22T02:28:55;4.85;;;3.40;;
62848;SDS011;48941;49.516;8.286;2023-07-22T02:31:22;5.82;;;3.25;;
62848;SDS011;48941;49.516;8.286;2023-07-22T02:33:53;4.63;;;3.50;;
62848;SDS011;48941;49.516;8.286;2023-07-22T02:36:20;4.32;;;3.50;;
62848;SDS011;48941;49.516;8.286;2023-07-22T02:38:48;4.90;;;3.67;;
62848;SDS011;48941;49.516;8.286;2023-07-22T02:41:16;6.75;;;3.85;;
62848;SDS011;48941;49.516;8.286;2023-07-22T02:43:44;4.43;;;3.53;;
62848;SDS011;48941;49.516;8.286;2023-07-22T02:46:12;4.15;;;3.40;;
62848;SDS011;48941;49.516;8.286;2023-07-22T02:48:40;4.57;;;3.60;;
62848;SDS011;48941;49.516;8.286;2023-07-22T02:51:09;3.80;;;3.40;;
62848;SDS011;48941;49.516;8.286;2023-07-22T02:53:37;6.22;;;3.88;;
62848;SDS011;48941;49.516;8.286;2023-07-22T02:56:05;4.22;;;3.83;;
62848;SDS011;48941;49.516;8.286;2023-07-22T02:58:34;6.15;;;3.80;;
62848;SDS011;48941;49.516;8.286;2023-07-22T03:01:02;4.18;;;3.80;;
62848;SDS011;48941;49.516;8.286;2023-07-22T03:03:31;5.70;;;4.05;;
62848;SDS011;48941;49.516;8.286;2023-07-22T03:05:59;4.65;;;4.13;;
62848;SDS011;48941;49.516;8.286;2023-07-22T03:08:28;6.30;;;4.35;;
62848;SDS011;48941;49.516;8.286;2023-07-22T03:10:57;5.82;;;4.25;;
62848;SDS011;48941;49.516;8.286;2023-07-22T03:13:24;7.15;;;4.38;;
62848;SDS011;48941;49.516;8.286;2023-07-22T03:15:56;5.93;;;4.50;;
62848;SDS011;48941;49.516;8.286;2023-07-22T03:18:25;5.70;;;4.25;;
62848;SDS011;48941;49.516;8.286;2023-07-22T03:20:52;5.13;;;4.63;;
62848;SDS011;48941;49.516;8.286;2023-07-22T03:23:20;6.40;;;4.78;;
62848;SDS011;48941;49.516;8.286;2023-07-22T03:25:49;6.28;;;4.85;;
62848;SDS011;48941;49.516;8.286;2023-07-22T03:28:17;6.45;;;4.38;;
62848;SDS011;48941;49.516;8.286;2023-07-22T03:30:45;5.32;;;4.10;;
62848;SDS011;48941;49.516;8.286;2023-07-22T03:33:13;5.03;;;4.07;;
62848;SDS011;48941;49.516;8.286;2023-07-22T03:35:41;5.63;;;4.07;;
62848;SDS011;48941;49.516;8.286;2023-07-22T03:38:09;5.22;;;4.05;;
62848;SDS011;48941;49.516;8.286;2023-07-22T03:40:36;7.20;;;4.45;;
62848;SDS011;48941;49.516;8.286;2023-07-22T03:43:06;5.18;;;4.20;;
62848;SDS011;48941;49.516;8.286;2023-07-22T03:45:33;4.10;;;3.60;;
62848;SDS011;48941;49.516;8.286;2023-07-22T03:48:01;6.43;;;3.90;;
62848;SDS011;48941;49.516;8.286;2023-07-22T03:50:29;4.93;;;3.45;;
62848;SDS011;48941;49.516;8.286;2023-07-22T03:52:57;5.40;;;3.28;;
62848;SDS011;48941;49.516;8.286;2023-07-22T03:55:25;5.85;;;4.15;;
62848;SDS011;48941;49.516;8.286;2023-07-22T03:57:53;5.72;;;3.92;;
62848;SDS011;48941;49.516;8.286;2023-07-22T04:00:22;4.43;;;3.78;;
62848;SDS011;48941;49.516;8.286;2023-07-22T04:02:50;7.25;;;3.80;;
62848;SDS011;48941;49.516;8.286;2023-07-22T04:05:17;4.72;;;3.80;;
62848;SDS011;48941;49.516;8.286;2023-07-22T04:07:45;5.13;;;3.72;;
62848;SDS011;48941;49.516;8.286;2023-07-22T04:10:13;6.00;;;3.60;;
62848;SDS011;48941;49.516;8.286;2023-07-22T04:12:41;4.57;;;3.95;;
62848;SDS011;48941;49.516;8.286;2023-07-22T04:15:09;5.03;;;4.10;;
62848;SDS011;48941;49.516;8.286;2023-07-22T04:17:39;5.72;;;4.18;;
62848;SDS011;48941;49.516;8.286;2023-07-22T04:20:07;6.13;;;4.07;;
62848;SDS011;48941;49.516;8.286;2023-07-22T04:22:36;5.63;;;3.97;;
62848;SDS011;48941;49.516;8.286;2023-07-22T04:25:04;4.30;;;3.60;;
62848;SDS011;48941;49.516;8.286;2023-07-22T04:27:33;4.07;;;3.53;;
62848;SDS011;48941;49.516;8.286;2023-07-22T04:30:01;5.32;;;4.05;;
62848;SDS011;48941;49.516;8.286;2023-07-22T04:32:29;5.75;;;4.30;;
62848;SDS011;48941;49.516;8.286;2023-07-22T04:34:58;4.72;;;3.90;;
62848;SDS011;48941;49.516;8.286;2023-07-22T04:37:26;7.63;;;6.72;;
62848;SDS011;48941;49.516;8.286;2023-07-22T04:39:54;8.02;;;4.00;;
62848;SDS011;48941;49.516;8.286;2023-07-22T04:42:21;4.88;;;4.05;;
62848;SDS011;48941;49.516;8.286;2023-07-22T04:44:49;4.35;;;3.58;;
62848;SDS011;48941;49.516;8.286;2023-07-22T04:47:17;4.70;;;3.80;;
62848;SDS011;48941;49.516;8.286;2023-07-22T04:49:45;7.35;;;3.78;;
62848;SDS011;48941;49.516;8.286;2023-07-22T04:52:14;4.82;;;3.92;;
62848;SDS011;48941;49.516;8.286;2023-07-22T04:54:43;6.13;;;3.85;;
62848;SDS011;48941;49.516;8.286;2023-07-22T04:57:13;4.40;;;3.20;;
62848;SDS011;48941;49.516;8.286;2023-07-22T04:59:43;4.40;;;3.50;;
62848;SDS011;48941;49.516;8.286;2023-07-22T05:02:11;5.38;;;3.88;;
62848;SDS011;48941;49.516;8.286;2023-07-22T05:04:39;4.70;;;3.72;;
62848;SDS011;48941;49.516;8.286;2023-07-22T05:07:07;5.22;;;3.78;;
62848;SDS011;48941;49.516;8.286;2023-07-22T05:09:37;5.25;;;3.97;;
62848;SDS011;48941;49.516;8.286;2023-07-22T05:12:05;4.60;;;3.88;;
62848;SDS011;48941;49.516;8.286;2023-07-22T05:14:33;5.68;;;3.67;;
62848;SDS011;48941;49.516;8.286;2023-07-22T05:17:01;6.13;;;3.90;;
62848;SDS011;48941;49.516;8.286;2023-07-22T05:19:29;4.32;;;3.60;;
62848;SDS011;48941;49.516;8.286;2023-07-22T05:21:56;4.53;;;3.75;;
62848;SDS011;48941;49.516;8.286;2023-07-22T05:24:24;5.47;;;3.70;;
62848;SDS011;48941;49.516;8.286;2023-07-22T05:26:53;6.25;;;4.00;;
62848;SDS011;48941;49.516;8.286;2023-07-22T05:29:34;6.03;;;4.07;;
62848;SDS011;48941;49.516;8.286;2023-07-22T05:32:02;5.78;;;4.00;;
62848;SDS011;48941;49.516;8.286;2023-07-22T05:34:37;6.72;;;4.85;;
62848;SDS011;48941;49.516;8.286;2023-07-22T05:37:05;6.15;;;4.18;;
62848;SDS011;48941;49.516;8.286;2023-07-22T05:39:33;6.57;;;4.43;;
62848;SDS011;48941;49.516;8.286;2023-07-22T05:42:02;7.95;;;4.63;;
62848;SDS011;48941;49.516;8.286;2023-07-22T05:44:30;7.15;;;4.03;;
62848;SDS011;48941;49.516;8.286;2023-07-22T05:46:58;6.68;;;4.40;;
62848;SDS011;48941;49.516;8.286;2023-07-22T05:49:26;8.98;;;4.70;;
62848;SDS011;48941;49.516;8.286;2023-07-22T05:51:53;6.75;;;5.07;;
62848;SDS011;48941;49.516;8.286;2023-07-22T05:54:21;8.90;;;4.70;;
62848;SDS011;48941;49.516;8.286;2023-07-22T05:56:49;8.27;;;4.88;;
62848;SDS011;48941;49.516;8.286;2023-07-22T05:59:18;7.80;;;4.95;;
62848;SDS011;48941;49.516;8.286;2023-07-22T06:01:47;6.95;;;5.20;;
62848;SDS011;48941;49.516;8.286;2023-07-22T06:04:15;5.78;;;4.82;;
62848;SDS011;48941;49.516;8.286;2023-07-22T06:06:43;10.00;;;5.13;;
62848;SDS011;48941;49.516;8.286;2023-07-22T06:09:11;9.05;;;5.63;;
62848;SDS011;48941;49.516;8.286;2023-07-22T06:11:39;8.70;;;5.30;;
62848;SDS011;48941;49.516;8.286;2023-07-22T06:14:06;6.75;;;4.63;;
62848;SDS011;48941;49.516;8.286;2023-07-22T06:16:37;8.75;;;4.97;;
62848;SDS011;48941;49.516;8.286;2023-07-22T06:19:04;6.20;;;5.00;;
62848;SDS011;48941;49.516;8.286;2023-07-22T06:21:32;6.57;;;5.18;;
62848;SDS011;48941;49.516;8.286;2023-07-22T06:24:00;9.98;;;4.82;;
62848;SDS011;48941;49.516;8.286;2023-07-22T06:26:28;8.00;;;4.95;;
62848;SDS011;48941;49.516;8.286;2023-07-22T06:28:56;5.57;;;4.63;;
62848;SDS011;48941;49.516;8.286;2023-07-22T06:31:24;6.53;;;5.38;;
62848;SDS011;48941;49.516;8.286;2023-07-22T06:33:58;7.15;;;5.10;;
62848;SDS011;48941;49.516;8.286;2023-07-22T06:36:26;10.20;;;5.10;;
62848;SDS011;48941;49.516;8.286;2023-07-22T06:38:55;6.13;;;4.70;;
62848;SDS011;48941;49.516;8.286;2023-07-22T06:41:23;8.15;;;3.92;;
62848;SDS011;48941;49.516;8.286;2023-07-22T06:43:51;8.05;;;4.70;;
62848;SDS011;48941;49.516;8.286;2023-07-22T06:46:19;6.22;;;4.07;;
62848;SDS011;48941;49.516;8.286;2023-07-22T06:48:47;4.90;;;3.45;;
62848;SDS011;48941;49.516;8.286;2023-07-22T06:51:16;4.63;;;3.80;;
62848;SDS011;48941;49.516;8.286;2023-07-22T06:53:44;8.52;;;3.92;;
62848;SDS011;48941;49.516;8.286;2023-07-22T06:56:12;4.95;;;3.45;;
62848;SDS011;48941;49.516;8.286;2023-07-22T06:58:40;6.05;;;3.53;;
62848;SDS011;48941;49.516;8.286;2023-07-22T07:01:07;3.70;;;3.28;;
62848;SDS011;48941;49.516;8.286;2023-07-22T07:03:35;7.38;;;3.88;;
62848;SDS011;48941;49.516;8.286;2023-07-22T07:06:03;9.10;;;3.72;;
62848;SDS011;48941;49.516;8.286;2023-07-22T07:08:32;4.25;;;3.65;;
62848;SDS011;48941;49.516;8.286;2023-07-22T07:11:00;4.05;;;3.50;;
62848;SDS011;48941;49.516;8.286;2023-07-22T07:13:28;4.10;;;3.70;;
62848;SDS011;48941;49.516;8.286;2023-07-22T07:15:56;6.22;;;3.60;;
62848;SDS011;48941;49.516;8.286;2023-07-22T07:18:23;4.05;;;3.65;;
62848;SDS011;48941;49.516;8.286;2023-07-22T07:20:51;4.45;;;3.55;;
62848;SDS011;48941;49.516;8.286;2023-07-22T07:23:19;7.13;;;4.18;;
62848;SDS011;48941;49.516;8.286;2023-07-22T07:25:48;5.32;;;3.72;;
62848;SDS011;48941;49.516;8.286;2023-07-22T07:28:16;8.60;;;4.00;;
62848;SDS011;48941;49.516;8.286;2023-07-22T07:30:44;4.95;;;3.92;;
62848;SDS011;48941;49.516;8.286;2023-07-22T07:33:12;5.65;;;3.95;;
62848;SDS011;48941;49.516;8.286;2023-07-22T07:35:40;6.10;;;4.32;;
62848;SDS011;48941;49.516;8.286;2023-07-22T07:38:07;7.78;;;3.75;;
62848;SDS011;48941;49.516;8.286;2023-07-22T07:40:35;9.27;;;4.85;;
62848;SDS011;48941;49.516;8.286;2023-07-22T07:43:05;6.95;;;4.68;;
62848;SDS011;48941;49.516;8.286;2023-07-22T07:45:32;5.50;;;4.63;;
62848;SDS011;48941;49.516;8.286;2023-07-22T07:48:00;6.55;;;4.38;;
62848;SDS011;48941;49.516;8.286;2023-07-22T07:50:28;5.97;;;4.18;;
62848;SDS011;48941;49.516;8.286;2023-07-22T07:52:56;4.32;;;3.92;;
62848;SDS011;48941;49.516;8.286;2023-07-22T07:55:24;6.32;;;4.50;;
62848;SDS011;48941;49.516;8.286;2023-07-22T07:57:51;6.65;;;4.38;;
62848;SDS011;48941;49.516;8.286;2023-07-22T08:00:21;5.57;;;4.10;;
62848;SDS011;48941;49.516;8.286;2023-07-22T08:02:49;5.00;;;4.43;;
62848;SDS011;48941;49.516;8.286;2023-07-22T08:05:16;10.48;;;4.15;;
62848;SDS011;48941;49.516;8.286;2023-07-22T08:07:44;10.52;;;4.40;;
62848;SDS011;48941;49.516;8.286;2023-07-22T08:10:12;4.45;;;4.00;;
62848;SDS011;48941;49.516;8.286;2023-07-22T08:12:40;6.78;;;4.30;;
62848;SDS011;48941;49.516;8.286;2023-07-22T08:15:08;5.47;;;3.78;;
62848;SDS011;48941;49.516;8.286;2023-07-22T08:17:37;8.00;;;3.72;;
62848;SDS011;48941;49.516;8.286;2023-07-22T08:20:06;5.00;;;3.83;;
62848;SDS011;48941;49.516;8.286;2023-07-22T08:22:34;4.05;;;3.60;;
62848;SDS011;48941;49.516;8.286;2023-07-22T08:25:02;4.75;;;3.95;;
62848;SDS011;48941;49.516;8.286;2023-07-22T08:27:31;6.25;;;3.80;;
62848;SDS011;48941;49.516;8.286;2023-07-22T08:29:58;7.03;;;4.05;;
62848;SDS011;48941;49.516;8.286;2023-07-22T08:32:26;6.47;;;4.25;;
62848;SDS011;48941;49.516;8.286;2023-07-22T08:34:55;5.55;;;4.78;;
62848;SDS011;48941;49.516;8.286;2023-07-22T08:37:23;6.78;;;5.03;;
62848;SDS011;48941;49.516;8.286;2023-07-22T08:39:51;8.48;;;5.55;;
62848;SDS011;48941;49.516;8.286;2023-07-22T08:42:19;7.30;;;5.00;;
62848;SDS011;48941;49.516;8.286;2023-07-22T08:44:48;7.97;;;4.68;;
62848;SDS011;48941;49.516;8.286;2023-07-22T08:47:19;7.45;;;4.50;;
62848;SDS011;48941;49.516;8.286;2023-07-22T08:49:50;6.95;;;4.63;;
62848;SDS011;48941;49.516;8.286;2023-07-22T08:52:21;10.40;;;4.43;;
62848;SDS011;48941;49.516;8.286;2023-07-22T08:54:50;14.57;;;4.43;;
62848;SDS011;48941;49.516;8.286;2023-07-22T08:57:19;7.10;;;4.50;;
62848;SDS011;48941;49.516;8.286;2023-07-22T08:59:48;6.18;;;4.15;;
62848;SDS011;48941;49.516;8.286;2023-07-22T09:02:17;9.23;;;4.32;;
62848;SDS011;48941;49.516;8.286;2023-07-22T09:04:45;5.35;;;3.70;;
62848;SDS011;48941;49.516;8.286;2023-07-22T09:07:12;6.65;;;3.90;;
62848;SDS011;48941;49.516;8.286;2023-07-22T09:09:44;6.68;;;3.45;;
62848;SDS011;48941;49.516;8.286;2023-07-22T09:12:12;7.65;;;3.40;;
62848;SDS011;48941;49.516;8.286;2023-07-22T09:14:42;5.55;;;3.35;;
62848;SDS011;48941;49.516;8.286;2023-07-22T09:17:11;5.22;;;3.40;;
62848;SDS011;48941;49.516;8.286;2023-07-22T09:19:39;8.32;;;3.65;;
62848;SDS011;48941;49.516;8.286;2023-07-22T09:22:07;8.45;;;3.30;;
62848;SDS011;48941;49.516;8.286;2023-07-22T09:24:35;4.13;;;3.40;;
62848;SDS011;48941;49.516;8.286;2023-07-22T09:27:05;3.80;;;3.10;;
62848;SDS011;48941;49.516;8.286;2023-07-22T09:29:33;4.15;;;3.00;;
62848;SDS011;48941;49.516;8.286;2023-07-22T09:32:01;3.83;;;2.80;;
62848;SDS011;48941;49.516;8.286;2023-07-22T09:34:30;10.35;;;3.10;;
62848;SDS011;48941;49.516;8.286;2023-07-22T09:36:58;7.03;;;2.60;;
62848;SDS011;48941;49.516;8.286;2023-07-22T09:39:28;4.53;;;3.00;;
62848;SDS011;48941;49.516;8.286;2023-07-22T09:41:55;4.68;;;2.88;;
62848;SDS011;48941;49.516;8.286;2023-07-22T09:44:29;4.35;;;2.97;;
62848;SDS011;48941;49.516;8.286;2023-07-22T09:46:59;3.72;;;2.70;;
62848;SDS011;48941;49.516;8.286;2023-07-22T09:49:33;3.20;;;2.90;;
62848;SDS011;48941;49.516;8.286;2023-07-22T09:52:08;4.75;;;2.85;;
62848;SDS011;48941;49.516;8.286;2023-07-22T09:54:40;7.45;;;3.63;;
62848;SDS011;48941;49.516;8.286;2023-07-22T09:57:14;5.35;;;2.88;;
62848;SDS011;48941;49.516;8.286;2023-07-22T09:59:44;3.33;;;2.63;;
62848;SDS011;48941;49.516;8.286;2023-07-22T10:02:14;6.38;;;3.20;;
62848;SDS011;48941;49.516;8.286;2023-07-22T10:04:46;3.95;;;3.10;;
62848;SDS011;48941;49.516;8.286;2023-07-22T10:07:16;3.38;;;2.97;;
62848;SDS011;48941;49.516;8.286;2023-07-22T10:09:45;3.72;;;2.85;;
62848;SDS011;48941;49.516;8.286;2023-07-22T10:12:14;3.78;;;2.78;;
62848;SDS011;48941;49.516;8.286;2023-07-22T10:14:43;4.40;;;2.80;;
62848;SDS011;48941;49.516;8.286;2023-07-22T10:17:13;3.80;;;2.63;;
62848;SDS011;48941;49.516;8.286;2023-07-22T10:19:43;6.75;;;2.97;;
62848;SDS011;48941;49.516;8.286;2023-07-22T10:22:11;4.75;;;2.60;;
62848;SDS011;48941;49.516;8.286;2023-07-22T10:24:39;3.75;;;2.70;;
62848;SDS011;48941;49.516;8.286;2023-07-22T10:27:08;4.03;;;2.53;;
62848;SDS011;48941;49.516;8.286;2023-07-22T10:29:37;5.53;;;2.70;;
62848;SDS011;48941;49.516;8.286;2023-07-22T10:32:07;3.78;;;2.65;;
62848;SDS011;48941;49.516;8.286;2023-07-22T10:34:35;2.90;;;2.60;;
62848;SDS011;48941;49.516;8.286;2023-07-22T10:37:03;4.43;;;2.83;;
62848;SDS011;48941;49.516;8.286;2023-07-22T10:39:31;9.35;;;2.83;;
62848;SDS011;48941;49.516;8.286;2023-07-22T10:41:59;3.05;;;2.67;;
62848;SDS011;48941;49.516;8.286;2023-07-22T10:44:30;4.63;;;2.60;;
62848;SDS011;48941;49.516;8.286;2023-07-22T10:46:58;4.78;;;2.63;;
62848;SDS011;48941;49.516;8.286;2023-07-22T10:49:41;3.20;;;2.67;;
62848;SDS011;48941;49.516;8.286;2023-07-22T10:52:10;7.50;;;2.67;;
62848;SDS011;48941;49.516;8.286;2023-07-22T10:54:39;5.28;;;2.95;;
62848;SDS011;48941;49.516;8.286;2023-07-22T10:57:23;3.72;;;2.47;;
62848;SDS011;48941;49.516;8.286;2023-07-22T10:59:52;4.32;;;3.13;;
62848;SDS011;48941;49.516;8.286;2023-07-22T11:02:23;4.20;;;2.60;;
62848;SDS011;48941;49.516;8.286;2023-07-22T11:04:54;6.32;;;2.70;;
62848;SDS011;48941;49.516;8.286;2023-07-22T11:07:30;7.20;;;2.90;;
62848;SDS011;48941;49.516;8.286;2023-07-22T11:10:10;3.97;;;2.60;;
62848;SDS011;48941;49.516;8.286;2023-07-22T11:12:43;4.10;;;2.30;;
62848;SDS011;48941;49.516;8.286;2023-07-22T11:15:14;4.90;;;2.63;;
62848;SDS011;48941;49.516;8.286;2023-07-22T11:17:43;6.63;;;2.97;;
62848;SDS011;48941;49.516;8.286;2023-07-22T11:20:13;2.85;;;2.50;;
62848;SDS011;48941;49.516;8.286;2023-07-22T11:22:41;3.50;;;2.58;;
62848;SDS011;48941;49.516;8.286;2023-07-22T11:25:16;7.20;;;3.13;;
62848;SDS011;48941;49.516;8.286;2023-07-22T11:27:44;4.03;;;2.60;;
62848;SDS011;48941;49.516;8.286;2023-07-22T11:30:12;4.70;;;2.53;;
62848;SDS011;48941;49.516;8.286;2023-07-22T11:32:41;2.60;;;2.40;;
62848;SDS011;48941;49.516;8.286;2023-07-22T11:35:10;7.25;;;2.97;;
62848;SDS011;48941;49.516;8.286;2023-07-22T11:37:39;3.92;;;2.75;;
62848;SDS011;48941;49.516;8.286;2023-07-22T11:40:11;3.25;;;2.28;;
62848;SDS011;48941;49.516;8.286;2023-07-22T11:42:40;9.85;;;2.65;;
62848;SDS011;48941;49.516;8.286;2023-07-22T11:45:08;3.15;;;2.40;;
62848;SDS011;48941;49.516;8.286;2023-07-22T11:47:36;4.70;;;2.47;;
62848;SDS011;48941;49.516;8.286;2023-07-22T11:50:05;6.03;;;2.42;;
62848;SDS011;48941;49.516;8.286;2023-07-22T11:52:33;5.47;;;2.40;;
62848;SDS011;48941;49.516;8.286;2023-07-22T11:55:02;3.50;;;2.80;;
62848;SDS011;48941;49.516;8.286;2023-07-22T11:57:31;2.90;;;2.50;;
62848;SDS011;48941;49.516;8.286;2023-07-22T11:59:58;2.70;;;2.45;;
62848;SDS011;48941;49.516;8.286;2023-07-22T12:02:26;4.20;;;2.50;;
62848;SDS011;48941;49.516;8.286;2023-07-22T12:04:56;12.02;;;2.80;;
62848;SDS011;48941;49.516;8.286;2023-07-22T12:07:25;3.42;;;2.50;;
62848;SDS011;48941;49.516;8.286;2023-07-22T12:09:54;2.92;;;2.65;;
62848;SDS011;48941;49.516;8.286;2023-07-22T12:12:32;3.60;;;2.40;;
62848;SDS011;48941;49.516;8.286;2023-07-22T12:15:01;11.60;;;3.00;;
62848;SDS011;48941;49.516;8.286;2023-07-22T12:17:42;5.75;;;2.55;;
62848;SDS011;48941;49.516;8.286;2023-07-22T12:20:11;3.35;;;2.50;;
62848;SDS011;48941;49.516;8.286;2023-07-22T12:22:40;10.95;;;2.83;;
62848;SDS011;48941;49.516;8.286;2023-07-22T12:25:08;2.92;;;2.38;;
62848;SDS011;48941;49.516;8.286;2023-07-22T12:27:37;7.85;;;2.78;;
62848;SDS011;48941;49.516;8.286;2023-07-22T12:30:06;5.10;;;2.83;;
62848;SDS011;48941;49.516;8.286;2023-07-22T12:32:34;4.50;;;2.40;;
62848;SDS011;48941;49.516;8.286;2023-07-22T12:35:02;4.20;;;2.70;;
62848;SDS011;48941;49.516;8.286;2023-07-22T12:37:30;4.20;;;2.67;;
62848;SDS011;48941;49.516;8.286;2023-07-22T12:39:58;5.50;;;2.70;;
62848;SDS011;48941;49.516;8.286;2023-07-22T12:42:26;6.63;;;2.88;;
62848;SDS011;48941;49.516;8.286;2023-07-22T12:44:55;3.40;;;2.80;;
62848;SDS011;48941;49.516;8.286;2023-07-22T12:47:23;5.20;;;3.20;;
62848;SDS011;48941;49.516;8.286;2023-07-22T12:49:51;13.45;;;2.80;;
62848;SDS011;48941;49.516;8.286;2023-07-22T12:52:18;5.75;;;2.50;;
62848;SDS011;48941;49.516;8.286;2023-07-22T12:54:46;6.07;;;2.90;;
62848;SDS011;48941;49.516;8.286;2023-07-22T12:57:14;4.05;;;2.92;;
62848;SDS011;48941;49.516;8.286;2023-07-22T12:59:41;3.30;;;2.97;;
62848;SDS011;48941;49.516;8.286;2023-07-22T13:02:15;3.00;;;2.70;;
62848;SDS011;48941;49.516;8.286;2023-07-22T13:04:43;32.55;;;4.22;;
62848;SDS011;48941;49.516;8.286;2023-07-22T13:07:12;3.50;;;2.70;;
62848;SDS011;48941;49.516;8.286;2023-07-22T13:09:39;5.45;;;2.88;;
62848;SDS011;48941;49.516;8.286;2023-07-22T13:12:09;8.75;;;3.10;;
62848;SDS011;48941;49.516;8.286;2023-07-22T13:14:37;3.05;;;2.78;;
62848;SDS011;48941;49.516;8.286;2023-07-22T13:17:05;4.80;;;2.78;;
62848;SDS011;48941;49.516;8.286;2023-07-22T13:19:35;6.55;;;3.08;;
62848;SDS011;48941;49.516;8.286;2023-07-22T13:22:03;5.25;;;3.25;;
62848;SDS011;48941;49.516;8.286;2023-07-22T13:24:31;8.13;;;4.82;;
62848;SDS011;48941;49.516;8.286;2023-07-22T13:26:59;5.55;;;3.25;;
62848;SDS011;48941;49.516;8.286;2023-07-22T13:29:26;6.72;;;3.00;;
62848;SDS011;48941;49.516;8.286;2023-07-22T13:31:54;4.00;;;2.85;;
62848;SDS011;48941;49.516;8.286;2023-07-22T13:34:22;4.80;;;3.67;;
62848;SDS011;48941;49.516;8.286;2023-07-22T13:36:51;3.78;;;2.75;;
62848;SDS011;48941;49.516;8.286;2023-07-22T13:39:19;7.20;;;3.10;;
62848;SDS011;48941;49.516;8.286;2023-07-22T13:41:47;3.72;;;3.15;;
62848;SDS011;48941;49.516;8.286;2023-07-22T13:44:14;7.80;;;3.38;;
62848;SDS011;48941;49.516;8.286;2023-07-22T13:46:42;8.02;;;3.05;;
62848;SDS011;48941;49.516;8.286;2023-07-22T13:49:10;6.32;;;3.20;;
62848;SDS011;48941;49.516;8.286;2023-07-22T13:51:38;7.55;;;2.90;;
62848;SDS011;48941;49.516;8.286;2023-07-22T13:54:07;4.70;;;3.13;;
62848;SDS011;48941;49.516;8.286;2023-07-22T13:56:35;4.32;;;2.90;;
62848;SDS011;48941;49.516;8.286;2023-07-22T13:59:02;8.20;;;3.03;;
62848;SDS011;48941;49.516;8.286;2023-07-22T14:01:30;4.90;;;3.45;;
62848;SDS011;48941;49.516;8.286;2023-07-22T14:03:58;6.03;;;3.08;;
62848;SDS011;48941;49.516;8.286;2023-07-22T14:06:26;4.75;;;2.92;;
62848;SDS011;48941;49.516;8.286;2023-07-22T14:08:54;5.78;;;3.28;;
62848;SDS011;48941;49.516;8.286;2023-07-22T14:11:23;4.88;;;3.20;;
62848;SDS011;48941;49.516;8.286;2023-07-22T14:13:51;3.47;;;2.70;;
62848;SDS011;48941;49.516;8.286;2023-07-22T14:16:19;7.35;;;2.90;;
62848;SDS011;48941;49.516;8.286;2023-07-22T14:18:48;4.85;;;3.08;;
62848;SDS011;48941;49.516;8.286;2023-07-22T14:21:18;9.90;;;3.28;;
62848;SDS011;48941;49.516;8.286;2023-07-22T14:23:46;8.00;;;3.20;;
62848;SDS011;48941;49.516;8.286;2023-07-22T14:26:14;3.33;;;2.80;;
62848;SDS011;48941;49.516;8.286;2023-07-22T14:28:43;7.20;;;3.15;;
62848;SDS011;48941;49.516;8.286;2023-07-22T14:31:11;3.58;;;3.13;;
62848;SDS011;48941;49.516;8.286;2023-07-22T14:33:39;4.28;;;3.40;;
62848;SDS011;48941;49.516;8.286;2023-07-22T14:36:07;4.32;;;3.38;;
62848;SDS011;48941;49.516;8.286;2023-07-22T14:38:34;4.25;;;3.03;;
62848;SDS011;48941;49.516;8.286;2023-07-22T14:41:02;6.10;;;3.35;;
62848;SDS011;48941;49.516;8.286;2023-07-22T14:43:30;4.63;;;3.22;;
62848;SDS011;48941;49.516;8.286;2023-07-22T14:45:59;4.35;;;2.80;;
62848;SDS011;48941;49.516;8.286;2023-07-22T14:48:27;6.03;;;3.10;;
62848;SDS011;48941;49.516;8.286;2023-07-22T14:50:55;5.13;;;3.22;;
62848;SDS011;48941;49.516;8.286;2023-07-22T14:53:23;4.30;;;3.10;;
62848;SDS011;48941;49.516;8.286;2023-07-22T14:55:50;4.30;;;3.22;;